Time;durP1;ratioP1;P1;durP2;ratioP2;P2;SDS_P1;SDS_P2;PMS_P1;PMS_P2;Temp;Humidity;BMP_temperature;BMP_pressure;BME280_temperature;BME280_humidity;BME280_pressure;Samples;Min_cycle;Max_cycle;Signal;HPM_P1;HPM_P2
2024/02/28 00:02:02;;;;;;;10.93;3.85;;;3.90;99.90;;;;;;5064532;28;20032;-73
2024/02/28 00:04:27;;;;;;;8.90;5.13;;;3.90;99.90;;;;;;5059577;28;20110;-73
2024/02/28 00:06:53;;;;;;;8.32;4.10;;;3.80;99.90;;;;;;5063067;28;20038;-74
2024/02/28 00:09:18;;;;;;;7.10;3.78;;;3.80;99.90;;;;;;5066358;28;20029;-73
2024/02/28 00:11:44;;;;;;;11.70;3.88;;;3.70;99.90;;;;;;5048965;28;20680;-71
2024/02/28 00:14:10;;;;;;;7.55;3.75;;;3.70;99.90;;;;;;5043476;28;20135;-73
2024/02/28 00:16:36;;;;;;;7.15;4.00;;;3.60;99.90;;;;;;5048370;28;20533;-72
2024/02/28 00:19:02;;;;;;;11.23;5.47;;;3.60;99.90;;;;;;5047737;28;20093;-73
2024/02/28 00:21:27;;;;;;;7.32;4.32;;;3.50;99.90;;;;;;5043937;28;20098;-72
2024/02/28 00:23:53;;;;;;;12.15;5.22;;;3.50;99.90;;;;;;5061098;28;20039;-73
2024/02/28 00:26:19;;;;;;;9.95;4.40;;;3.50;99.90;;;;;;5061451;28;20116;-72
2024/02/28 00:28:44;;;;;;;10.93;4.95;;;3.40;99.90;;;;;;5044186;28;20040;-71
2024/02/28 00:31:10;;;;;;;15.57;5.28;;;3.50;99.90;;;;;;5065823;28;20040;-73
2024/02/28 00:33:35;;;;;;;11.70;5.00;;;3.40;99.90;;;;;;5062410;28;20147;-72
2024/02/28 00:36:01;;;;;;;9.27;5.45;;;3.40;99.90;;;;;;5047072;28;20028;-72
2024/02/28 00:38:27;;;;;;;10.70;6.15;;;3.40;99.90;;;;;;5067073;28;20036;-73
2024/02/28 00:40:53;;;;;;;11.43;5.57;;;3.40;99.90;;;;;;5066385;28;20033;-73
2024/02/28 00:43:18;;;;;;;11.10;5.70;;;3.40;99.90;;;;;;5077444;28;20043;-72
2024/02/28 00:45:44;;;;;;;12.15;5.43;;;3.40;99.90;;;;;;5050031;28;20036;-72
2024/02/28 00:48:09;;;;;;;11.57;5.68;;;3.40;99.90;;;;;;5047374;28;20036;-73
2024/02/28 00:50:35;;;;;;;9.98;5.68;;;3.40;99.90;;;;;;5054534;28;20750;-72
2024/02/28 00:53:01;;;;;;;9.48;5.00;;;3.30;99.90;;;;;;5054870;28;20029;-74
2024/02/28 00:55:26;;;;;;;10.80;5.45;;;3.30;99.90;;;;;;5048078;28;20040;-73
2024/02/28 00:57:52;;;;;;;14.20;5.22;;;3.40;99.90;;;;;;5053630;28;20029;-73
2024/02/28 01:00:17;;;;;;;11.45;5.32;;;3.30;99.90;;;;;;5043956;28;20029;-73
2024/02/28 01:02:43;;;;;;;12.68;5.57;;;3.30;99.90;;;;;;5054403;28;20514;-73
2024/02/28 01:05:08;;;;;;;9.13;4.90;;;3.30;99.90;;;;;;5046962;28;20105;-73
2024/02/28 01:07:34;;;;;;;9.05;4.80;;;3.30;99.90;;;;;;5044781;28;20829;-73
2024/02/28 01:10:00;;;;;;;11.38;5.65;;;3.30;99.90;;;;;;5046617;28;20040;-73
2024/02/28 01:12:25;;;;;;;8.07;4.65;;;3.30;99.90;;;;;;5045931;28;20405;-73
2024/02/28 01:14:51;;;;;;;9.18;4.55;;;3.30;99.90;;;;;;5056991;28;20071;-73
2024/02/28 01:17:16;;;;;;;9.68;4.78;;;3.30;99.90;;;;;;5057769;28;20494;-71
2024/02/28 01:19:42;;;;;;;11.73;4.47;;;3.30;99.90;;;;;;5053099;28;20064;-74
2024/02/28 01:22:08;;;;;;;8.25;4.15;;;3.30;99.90;;;;;;5059509;28;20068;-72
2024/02/28 01:24:34;;;;;;;11.90;5.45;;;3.20;99.90;;;;;;5055826;28;20037;-74
2024/02/28 01:27:00;;;;;;;13.02;5.03;;;3.20;99.90;;;;;;5043797;28;20615;-72
2024/02/28 01:29:25;;;;;;;10.23;5.10;;;3.20;99.90;;;;;;5053442;28;20043;-73
2024/02/28 01:31:51;;;;;;;11.70;4.47;;;3.20;99.90;;;;;;5054859;28;20056;-74
2024/02/28 01:34:17;;;;;;;7.93;4.47;;;3.10;99.90;;;;;;5055639;28;20063;-71
2024/02/28 01:36:42;;;;;;;11.05;5.10;;;3.10;99.90;;;;;;5046373;28;20037;-72
2024/02/28 01:39:08;;;;;;;10.02;4.57;;;3.10;99.90;;;;;;5059101;28;20048;-72
2024/02/28 01:41:33;;;;;;;9.02;4.57;;;3.10;99.90;;;;;;5048889;28;20037;-73
2024/02/28 01:43:59;;;;;;;11.52;4.88;;;3.10;99.90;;;;;;5050534;28;20220;-74
2024/02/28 01:46:29;;;;;;;7.28;3.38;;;3.10;99.90;;;;;;5049422;28;20039;-73
2024/02/28 01:48:55;;;;;;;8.82;4.35;;;3.00;99.90;;;;;;5062235;28;20067;-73
2024/02/28 01:51:26;;;;;;;9.38;4.63;;;3.00;99.90;;;;;;5049602;28;20043;-74
2024/02/28 01:53:53;;;;;;;9.05;4.80;;;3.00;99.90;;;;;;5045625;28;20187;-73
2024/02/28 01:56:20;;;;;;;7.93;4.28;;;3.00;99.90;;;;;;5050800;28;20497;-73
2024/02/28 01:58:47;;;;;;;8.00;4.00;;;3.00;99.90;;;;;;5048747;28;20041;-73
2024/02/28 02:01:17;;;;;;;5.80;3.25;;;3.00;99.90;;;;;;5051215;28;20075;-74
2024/02/28 02:03:43;;;;;;;11.98;4.93;;;3.00;99.90;;;;;;5049511;28;20077;-72
2024/02/28 02:06:09;;;;;;;13.40;4.78;;;3.00;99.90;;;;;;5063680;28;20067;-74
2024/02/28 02:08:36;;;;;;;9.27;4.68;;;3.00;99.90;;;;;;5048730;28;20055;-73
2024/02/28 02:11:02;;;;;;;9.88;4.45;;;2.90;99.90;;;;;;5063988;28;20047;-73
2024/02/28 02:13:28;;;;;;;7.47;4.13;;;3.00;99.90;;;;;;5063574;28;20033;-72
2024/02/28 02:15:53;;;;;;;9.02;4.43;;;3.00;99.90;;;;;;5050348;28;20039;-74
2024/02/28 02:18:19;;;;;;;7.60;3.85;;;3.00;99.90;;;;;;5073331;28;20036;-73
2024/02/28 02:20:49;;;;;;;15.93;4.80;;;3.00;99.90;;;;;;5056151;28;20029;-72
2024/02/28 02:23:15;;;;;;;;;;;3.00;99.90;;;;;;5062607;28;20363;-74
2024/02/28 02:25:45;;;;;;;9.60;4.10;;;3.00;99.90;;;;;;5058040;28;19939;-72
2024/02/28 02:28:11;;;;;;;9.10;4.88;;;3.00;99.90;;;;;;5048222;28;20032;-73
2024/02/28 02:30:37;;;;;;;9.30;4.47;;;3.10;99.90;;;;;;5039607;28;20382;-74
2024/02/28 02:33:03;;;;;;;6.90;4.00;;;3.10;99.90;;;;;;5027747;28;20108;-72
2024/02/28 02:35:28;;;;;;;11.80;5.00;;;3.10;99.90;;;;;;5043713;28;20521;-73
2024/02/28 02:37:54;;;;;;;6.70;3.92;;;3.10;99.90;;;;;;5043547;28;20430;-72
2024/02/28 02:40:19;;;;;;;11.05;4.55;;;3.10;99.90;;;;;;5053801;28;20060;-72
2024/02/28 02:42:45;;;;;;;11.25;4.30;;;3.10;99.90;;;;;;5063072;28;20033;-72
2024/02/28 02:45:10;;;;;;;7.00;4.22;;;3.10;99.90;;;;;;5065919;28;20032;-73
2024/02/28 02:47:36;;;;;;;8.02;4.10;;;3.00;99.90;;;;;;5050413;28;20563;-73
2024/02/28 02:50:02;;;;;;;7.60;3.97;;;3.00;99.90;;;;;;5063920;28;20128;-73
2024/02/28 02:52:28;;;;;;;7.60;4.25;;;3.00;99.90;;;;;;5047958;28;20115;-73
2024/02/28 02:54:53;;;;;;;9.45;4.22;;;3.00;99.90;;;;;;5060425;28;20085;-73
2024/02/28 02:57:20;;;;;;;8.25;4.00;;;3.00;99.90;;;;;;5050417;28;20443;-73
2024/02/28 02:59:46;;;;;;;10.43;4.13;;;3.00;99.90;;;;;;5063797;28;20025;-73
2024/02/28 03:02:11;;;;;;;7.93;4.18;;;3.00;99.90;;;;;;5066201;28;20039;-73
2024/02/28 03:04:37;;;;;;;7.63;3.90;;;3.10;99.90;;;;;;5065732;28;20032;-73
2024/02/28 03:07:02;;;;;;;8.15;4.00;;;3.10;99.90;;;;;;5059516;28;20079;-73
2024/02/28 03:09:28;;;;;;;8.60;4.38;;;3.10;99.90;;;;;;5069028;28;20048;-73
2024/02/28 03:11:53;;;;;;;9.02;4.85;;;3.20;99.90;;;;;;5060574;28;20033;-75
2024/02/28 03:14:21;;;;;;;9.98;3.60;;;3.30;99.90;;;;;;5050209;28;20041;-73
2024/02/28 03:16:48;;;;;;;11.73;5.05;;;3.30;99.90;;;;;;5061341;28;20083;-74
2024/02/28 03:19:14;;;;;;;11.05;4.97;;;3.40;99.90;;;;;;5065842;28;20052;-74
2024/02/28 03:21:41;;;;;;;11.27;4.47;;;3.50;99.90;;;;;;5043889;28;20048;-75
2024/02/28 03:24:06;;;;;;;10.55;5.00;;;3.50;99.90;;;;;;5048458;28;20147;-74
2024/02/28 03:26:32;;;;;;;11.85;5.22;;;3.70;99.90;;;;;;5044549;28;20548;-73
2024/02/28 03:28:58;;;;;;;10.52;5.30;;;3.70;99.90;;;;;;5064750;28;20038;-74
2024/02/28 03:31:24;;;;;;;13.38;5.22;;;3.80;99.90;;;;;;5049185;28;20072;-73
2024/02/28 03:33:50;;;;;;;11.05;5.60;;;3.80;99.90;;;;;;5061295;28;20060;-74
2024/02/28 03:36:16;;;;;;;9.23;4.68;;;3.80;99.90;;;;;;5065537;28;20033;-71
2024/02/28 03:38:41;;;;;;;9.65;4.88;;;3.90;99.90;;;;;;5048813;28;20514;-74
2024/02/28 03:41:07;;;;;;;12.38;5.82;;;3.90;99.90;;;;;;5065376;28;20123;-74
2024/02/28 03:43:32;;;;;;;12.85;5.22;;;4.00;99.90;;;;;;5065779;28;20037;-74
2024/02/28 03:45:58;;;;;;;8.75;5.22;;;4.00;99.90;;;;;;5048491;28;20124;-73
2024/02/28 03:48:24;;;;;;;11.05;5.45;;;4.00;99.90;;;;;;5049763;28;20043;-74
2024/02/28 03:50:49;;;;;;;13.48;5.57;;;4.00;99.90;;;;;;5048506;28;20483;-73
2024/02/28 03:53:15;;;;;;;8.85;4.70;;;4.00;99.90;;;;;;5048064;28;20029;-72
2024/02/28 03:55:41;;;;;;;14.00;5.47;;;4.00;99.90;;;;;;5060116;28;20032;-73
2024/02/28 03:58:08;;;;;;;9.88;4.65;;;4.10;99.90;;;;;;5071473;28;20032;-74
2024/02/28 04:00:35;;;;;;;10.65;5.50;;;4.10;99.90;;;;;;5063905;28;20036;-73
2024/02/28 04:03:00;;;;;;;14.52;5.43;;;4.10;99.90;;;;;;5047834;28;20044;-75
2024/02/28 04:05:26;;;;;;;10.00;5.53;;;4.10;99.90;;;;;;5047695;28;20599;-74
2024/02/28 04:07:51;;;;;;;11.73;5.40;;;4.10;99.90;;;;;;5047014;28;20505;-73
2024/02/28 04:10:17;;;;;;;8.90;5.20;;;4.10;99.90;;;;;;5048453;28;20166;-73
2024/02/28 04:12:44;;;;;;;12.85;5.68;;;4.20;99.90;;;;;;5060146;28;20029;-73
2024/02/28 04:15:13;;;;;;;9.95;5.00;;;4.20;99.90;;;;;;5045092;28;20122;-74
2024/02/28 04:17:40;;;;;;;13.80;5.10;;;4.20;99.90;;;;;;5046263;28;20036;-73
2024/02/28 04:20:10;;;;;;;8.98;4.93;;;4.20;99.90;;;;;;5046047;28;20057;-74
2024/02/28 04:22:35;;;;;;;9.77;3.63;;;4.30;99.90;;;;;;5057586;28;20043;-73
2024/02/28 04:25:01;;;;;;;9.73;5.03;;;4.30;99.90;;;;;;5055392;28;20271;-73
2024/02/28 04:27:26;;;;;;;8.55;4.88;;;4.30;99.90;;;;;;5048148;28;20035;-73
2024/02/28 04:29:52;;;;;;;14.85;6.18;;;4.30;99.90;;;;;;5044030;28;20029;-75
2024/02/28 04:32:18;;;;;;;10.40;5.90;;;4.40;99.90;;;;;;5055068;28;20143;-74
2024/02/28 04:34:44;;;;;;;10.80;5.53;;;4.40;99.90;;;;;;5042458;28;20545;-73
2024/02/28 04:37:09;;;;;;;12.15;6.28;;;4.40;99.90;;;;;;5059531;28;20594;-74
2024/02/28 04:39:35;;;;;;;12.85;6.30;;;4.40;99.90;;;;;;5058567;28;20025;-72
2024/02/28 04:42:01;;;;;;;14.63;4.80;;;4.40;99.90;;;;;;5062744;28;20029;-73
2024/02/28 04:44:26;;;;;;;11.38;5.97;;;4.40;99.90;;;;;;5056968;28;20044;-73
2024/02/28 04:46:52;;;;;;;8.90;4.93;;;4.40;99.90;;;;;;5062477;28;20541;-73
2024/02/28 04:49:17;;;;;;;11.02;5.28;;;4.40;99.90;;;;;;5060037;28;20055;-72
2024/02/28 04:51:43;;;;;;;11.57;5.68;;;4.40;99.90;;;;;;5056361;28;20417;-73
2024/02/28 04:54:09;;;;;;;12.18;5.40;;;4.50;99.90;;;;;;5046317;28;20127;-73
2024/02/28 04:56:42;;;;;;;10.10;5.90;;;4.50;99.90;;;;;;5058815;28;20120;-73
2024/02/28 04:59:13;;;;;;;13.50;5.60;;;4.50;99.90;;;;;;5046734;28;20132;-73
2024/02/28 05:01:41;;;;;;;11.95;4.97;;;4.50;99.90;;;;;;5046765;28;20602;-71
2024/02/28 05:04:07;;;;;;;11.63;5.90;;;4.60;99.90;;;;;;5058472;28;20106;-73
2024/02/28 05:06:33;;;;;;;9.75;5.40;;;4.60;99.90;;;;;;5045822;28;20460;-73
2024/02/28 05:08:59;;;;;;;10.98;5.03;;;4.60;99.90;;;;;;5056708;28;20036;-73
2024/02/28 05:11:24;;;;;;;14.05;5.95;;;4.70;99.90;;;;;;5061102;28;20063;-73
2024/02/28 05:13:50;;;;;;;11.35;5.32;;;4.70;99.90;;;;;;5044615;28;20075;-74
2024/02/28 05:16:16;;;;;;;10.95;6.18;;;4.70;99.90;;;;;;5052613;28;20131;-71
2024/02/28 05:18:44;;;;;;;11.75;6.15;;;4.70;99.90;;;;;;5050949;28;20429;-73
2024/02/28 05:21:10;;;;;;;13.15;5.75;;;4.70;99.90;;;;;;5063305;28;20060;-74
2024/02/28 05:23:35;;;;;;;10.95;4.97;;;4.70;99.90;;;;;;5061428;28;20664;-73
2024/02/28 05:26:03;;;;;;;12.35;5.40;;;4.70;99.90;;;;;;5061643;28;20143;-74
2024/02/28 05:28:31;;;;;;;11.45;4.78;;;4.70;99.90;;;;;;5066375;28;20075;-72
2024/02/28 05:30:56;;;;;;;16.88;6.20;;;4.80;99.90;;;;;;5067602;28;20056;-72
2024/02/28 05:33:22;;;;;;;14.20;5.80;;;4.80;99.90;;;;;;5065904;28;20375;-74
2024/02/28 05:35:48;;;;;;;13.52;5.63;;;4.80;99.90;;;;;;5065274;28;20104;-74
2024/02/28 05:38:13;;;;;;;14.07;5.57;;;4.80;99.90;;;;;;5065136;28;20024;-75
2024/02/28 05:40:40;;;;;;;15.07;6.40;;;4.80;99.90;;;;;;5050154;28;20041;-74
2024/02/28 05:43:06;;;;;;;11.07;6.10;;;4.90;99.90;;;;;;5062975;28;20044;-72
2024/02/28 05:45:32;;;;;;;15.77;6.78;;;4.90;99.90;;;;;;5051003;28;20036;-73
2024/02/28 05:47:57;;;;;;;10.27;5.03;;;4.90;99.90;;;;;;5062135;28;20029;-73
2024/02/28 05:50:23;;;;;;;14.82;6.15;;;4.90;99.90;;;;;;5067801;28;20044;-73
2024/02/28 05:52:48;;;;;;;14.50;6.53;;;4.90;99.90;;;;;;5068104;28;20021;-74
2024/02/28 05:55:14;;;;;;;16.75;6.78;;;5.00;99.90;;;;;;5065651;28;20035;-74
2024/02/28 05:57:39;;;;;;;15.02;5.85;;;5.00;99.90;;;;;;5051299;28;20021;-73
2024/02/28 06:00:09;;;;;;;11.95;6.68;;;5.00;99.90;;;;;;5068727;28;21169;-73
2024/02/28 06:02:36;;;;;;;17.42;7.45;;;5.00;99.90;;;;;;5065118;28;20468;-73
2024/02/28 06:05:02;;;;;;;15.73;6.88;;;5.00;99.90;;;;;;5062846;28;20497;-73
2024/02/28 06:07:28;;;;;;;14.25;6.63;;;5.00;99.90;;;;;;5065679;28;20044;-74
2024/02/28 06:09:53;;;;;;;10.50;6.25;;;5.10;99.90;;;;;;5063395;28;20024;-74
2024/02/28 06:12:19;;;;;;;15.25;5.80;;;5.20;99.90;;;;;;5051459;28;20044;-73
2024/02/28 06:14:45;;;;;;;13.75;6.38;;;5.20;99.90;;;;;;5065571;28;20524;-72
2024/02/28 06:17:10;;;;;;;20.65;7.45;;;5.10;99.90;;;;;;5066446;28;20078;-75
2024/02/28 06:19:36;;;;;;;16.30;7.47;;;5.10;99.90;;;;;;5067943;28;20054;-72
2024/02/28 06:22:01;;;;;;;12.50;5.93;;;5.20;99.90;;;;;;5051232;28;20025;-73
2024/02/28 06:24:26;;;;;;;13.63;6.22;;;5.20;99.90;;;;;;5041818;28;20040;-73
2024/02/28 06:26:52;;;;;;;16.52;7.05;;;5.20;99.90;;;;;;5058841;28;20037;-73
2024/02/28 06:29:18;;;;;;;18.98;7.28;;;5.20;99.90;;;;;;5063319;28;20784;-73
2024/02/28 06:31:43;;;;;;;14.82;6.90;;;5.20;99.90;;;;;;5047857;28;20059;-72
2024/02/28 06:34:09;;;;;;;14.05;6.95;;;5.30;99.90;;;;;;5065462;28;20075;-74
2024/02/28 06:36:34;;;;;;;17.65;7.22;;;5.30;99.90;;;;;;5044783;28;20043;-73
2024/02/28 06:39:00;;;;;;;15.60;7.05;;;5.30;99.90;;;;;;5062593;28;20102;-74
2024/02/28 06:41:26;;;;;;;15.63;7.63;;;5.30;99.90;;;;;;5043147;28;20575;-74
2024/02/28 06:43:51;;;;;;;15.63;7.43;;;5.30;99.90;;;;;;5059601;28;20494;-74
2024/02/28 06:46:17;;;;;;;15.00;6.53;;;5.30;99.90;;;;;;5064633;28;20032;-73
2024/02/28 06:48:43;;;;;;;15.65;6.60;;;5.30;99.90;;;;;;5060099;28;20037;-75
2024/02/28 06:51:08;;;;;;;14.13;6.50;;;5.30;99.90;;;;;;5060471;28;20094;-73
2024/02/28 06:53:34;;;;;;;15.68;5.82;;;5.30;99.90;;;;;;5063147;28;20152;-73
2024/02/28 06:56:01;;;;;;;14.77;6.28;;;5.40;99.90;;;;;;5042358;28;20052;-73
2024/02/28 06:58:27;;;;;;;11.85;5.93;;;5.40;99.90;;;;;;5042156;28;20094;-73
2024/02/28 07:00:52;;;;;;;12.60;6.35;;;5.40;99.90;;;;;;5059239;28;20041;-74
2024/02/28 07:03:18;;;;;;;12.98;6.13;;;5.40;99.90;;;;;;5047158;28;20818;-73
2024/02/28 07:05:44;;;;;;;17.88;6.90;;;5.40;99.90;;;;;;5069182;28;20028;-73
2024/02/28 07:08:11;;;;;;;12.18;6.05;;;5.40;99.90;;;;;;5077451;28;20371;-75
2024/02/28 07:10:36;;;;;;;14.23;6.72;;;5.40;99.90;;;;;;5066848;28;20036;-72
2024/02/28 07:13:02;;;;;;;12.30;6.82;;;5.40;99.90;;;;;;5041618;28;20039;-74
2024/02/28 07:15:28;;;;;;;15.75;6.57;;;5.50;99.90;;;;;;5058529;28;20045;-73
2024/02/28 07:17:53;;;;;;;14.50;6.88;;;5.40;99.90;;;;;;5037288;28;20033;-73
2024/02/28 07:20:19;;;;;;;13.55;6.85;;;5.50;99.90;;;;;;5034793;28;20040;-70
2024/02/28 07:22:44;;;;;;;14.60;5.93;;;5.40;99.90;;;;;;5062725;28;20068;-72
2024/02/28 07:25:10;;;;;;;12.00;6.25;;;5.40;99.90;;;;;;5060994;28;20029;-73
2024/02/28 07:27:35;;;;;;;13.38;6.40;;;5.40;99.90;;;;;;5064262;28;20963;-73
2024/02/28 07:30:03;;;;;;;14.73;6.07;;;5.40;99.90;;;;;;5064778;28;20158;-74
2024/02/28 07:32:28;;;;;;;20.83;7.53;;;5.40;99.90;;;;;;5048822;28;20032;-73
2024/02/28 07:34:55;;;;;;;14.43;7.22;;;5.50;99.90;;;;;;5064073;28;20613;-73
2024/02/28 07:37:20;;;;;;;17.27;8.07;;;5.50;99.90;;;;;;5042205;28;20044;-72
2024/02/28 07:39:47;;;;;;;13.50;7.07;;;5.50;99.90;;;;;;5046900;28;20025;-74
2024/02/28 07:42:12;;;;;;;21.20;7.18;;;5.50;99.90;;;;;;5055472;28;20402;-73
2024/02/28 07:44:38;;;;;;;13.23;6.18;;;5.50;99.90;;;;;;5058179;28;20043;-75
2024/02/28 07:47:06;;;;;;;15.23;6.72;;;5.60;99.90;;;;;;5045426;28;20033;-72
2024/02/28 07:49:31;;;;;;;13.10;6.45;;;5.60;99.90;;;;;;5059269;28;20036;-73
2024/02/28 07:51:57;;;;;;;22.20;8.15;;;5.60;99.90;;;;;;5058670;28;20033;-71
2024/02/28 07:54:22;;;;;;;19.30;6.22;;;5.70;99.90;;;;;;5050188;28;20037;-74
2024/02/28 07:56:48;;;;;;;15.18;7.00;;;5.70;99.90;;;;;;5072588;28;20075;-73
2024/02/28 07:59:14;;;;;;;13.50;6.70;;;5.70;99.90;;;;;;5045966;28;20394;-73
2024/02/28 08:01:39;;;;;;;14.15;7.25;;;5.70;99.90;;;;;;5048735;28;20032;-73
2024/02/28 08:04:05;;;;;;;14.73;7.53;;;5.80;99.90;;;;;;5054692;28;20033;-73
2024/02/28 08:06:33;;;;;;;13.00;7.05;;;5.90;99.90;;;;;;5047865;28;20932;-73
2024/02/28 08:08:58;;;;;;;16.63;6.97;;;5.90;99.90;;;;;;5045350;28;20056;-72
2024/02/28 08:11:24;;;;;;;14.45;6.95;;;5.90;99.90;;;;;;5058133;28;20080;-74
2024/02/28 08:13:50;;;;;;;14.77;6.65;;;6.00;99.90;;;;;;5056974;28;20064;-74
2024/02/28 08:16:16;;;;;;;14.70;6.80;;;6.00;99.90;;;;;;5056660;28;20063;-72
2024/02/28 08:18:41;;;;;;;15.43;6.40;;;6.10;99.90;;;;;;5044138;28;20029;-74
2024/02/28 08:21:08;;;;;;;13.48;6.70;;;6.10;99.90;;;;;;5043398;28;20037;-73
2024/02/28 08:23:33;;;;;;;15.23;7.18;;;6.10;99.90;;;;;;5046845;28;20036;-73
2024/02/28 08:25:59;;;;;;;22.55;7.25;;;6.20;99.90;;;;;;5057902;28;20037;-74
2024/02/28 08:28:24;;;;;;;17.52;7.30;;;6.30;99.90;;;;;;5058850;28;20127;-73
2024/02/28 08:30:50;;;;;;;13.20;6.72;;;6.20;99.90;;;;;;5058503;28;20078;-73
2024/02/28 08:33:16;;;;;;;15.18;7.25;;;6.40;99.90;;;;;;5057858;28;20115;-73
2024/02/28 08:35:43;;;;;;;16.98;6.63;;;6.50;99.90;;;;;;5062279;28;20052;-74
2024/02/28 08:38:08;;;;;;;15.50;6.55;;;6.60;99.90;;;;;;5056265;28;20135;-74
2024/02/28 08:40:34;;;;;;;17.48;6.53;;;6.60;99.90;;;;;;5061058;28;20131;-74
2024/02/28 08:42:59;;;;;;;13.00;6.35;;;6.70;99.90;;;;;;5065968;28;20104;-73
2024/02/28 08:45:25;;;;;;;13.40;6.50;;;6.70;99.90;;;;;;5054263;28;20037;-73
2024/02/28 08:47:50;;;;;;;10.40;5.78;;;6.70;99.90;;;;;;5049749;28;20040;-73
2024/02/28 08:50:16;;;;;;;11.00;5.63;;;6.80;99.90;;;;;;5061072;28;20382;-72
2024/02/28 08:52:41;;;;;;;11.40;5.50;;;6.80;99.90;;;;;;5065060;28;20032;-74
2024/02/28 08:55:07;;;;;;;12.38;6.00;;;6.90;99.90;;;;;;5047928;28;20028;-74
2024/02/28 08:57:34;;;;;;;13.07;6.00;;;6.90;99.90;;;;;;5065459;28;20105;-73
2024/02/28 08:59:59;;;;;;;23.20;6.28;;;7.00;99.90;;;;;;5063054;28;20021;-73
2024/02/28 09:02:25;;;;;;;11.05;5.85;;;7.20;99.90;;;;;;5062581;28;20044;-76
2024/02/28 09:04:52;;;;;;;16.25;5.75;;;7.30;99.90;;;;;;5064661;28;20178;-73
2024/02/28 09:07:21;;;;;;;15.73;6.07;;;7.30;99.90;;;;;;5062260;28;20049;-73
2024/02/28 09:09:46;;;;;;;9.48;4.85;;;7.50;99.90;;;;;;5047416;28;20090;-72
2024/02/28 09:12:13;;;;;;;15.93;5.95;;;7.60;99.90;;;;;;5064276;28;20509;-71
2024/02/28 09:14:38;;;;;;;10.65;5.13;;;7.60;99.90;;;;;;5066509;28;20044;-74
2024/02/28 09:17:04;;;;;;;15.85;4.75;;;7.70;99.90;;;;;;5057871;28;20024;-72
2024/02/28 09:19:31;;;;;;;8.85;4.72;;;7.60;99.90;;;;;;5062746;28;20044;-74
2024/02/28 09:21:57;;;;;;;15.60;5.65;;;7.70;99.90;;;;;;5047176;28;20025;-75
2024/02/28 09:24:26;;;;;;;9.82;5.00;;;7.80;99.90;;;;;;5064994;28;20456;-73
2024/02/28 09:26:52;;;;;;;15.20;4.97;;;7.80;99.90;;;;;;5050665;28;20112;-74
2024/02/28 09:29:17;;;;;;;10.95;4.82;;;7.90;99.90;;;;;;5066098;28;20112;-74
2024/02/28 09:31:43;;;;;;;14.63;5.75;;;7.90;99.90;;;;;;5076049;28;20522;-74
2024/02/28 09:34:09;;;;;;;8.68;4.15;;;8.00;99.90;;;;;;5040271;28;20490;-75
2024/02/28 09:36:45;;;;;;;9.63;4.85;;;8.00;99.90;;;;;;5060189;28;20059;-76
2024/02/28 09:39:15;;;;;;;10.43;4.88;;;8.10;99.90;;;;;;5061744;28;20033;-74
2024/02/28 09:41:41;;;;;;;17.37;5.50;;;8.10;99.90;;;;;;5050647;28;20039;-74
2024/02/28 09:44:07;;;;;;;11.57;4.90;;;8.20;99.90;;;;;;5047850;28;20279;-74
2024/02/28 09:46:34;;;;;;;15.00;5.10;;;8.30;99.90;;;;;;5065518;28;20048;-74
2024/02/28 09:49:05;;;;;;;12.70;5.15;;;8.20;99.90;;;;;;5049708;28;20036;-74
2024/02/28 09:51:34;;;;;;;;;;;8.20;99.90;;;;;;5065214;28;20110;-74
2024/02/28 09:54:02;;;;;;;11.32;5.70;;;8.20;99.90;;;;;;5043808;28;19943;-74
2024/02/28 09:56:27;;;;;;;9.95;4.70;;;8.30;99.90;;;;;;5050767;28;20032;-75
2024/02/28 09:58:54;;;;;;;13.05;5.45;;;8.20;99.90;;;;;;5064431;28;20543;-76
2024/02/28 10:01:22;;;;;;;13.40;5.43;;;8.30;99.90;;;;;;5064400;28;20037;-73
2024/02/28 10:03:52;;;;;;;12.40;6.03;;;8.30;99.90;;;;;;5065185;28;20699;-73
2024/02/28 10:06:18;;;;;;;14.10;5.88;;;8.40;99.90;;;;;;5062890;28;20025;-73
2024/02/28 10:08:47;;;;;;;13.13;7.15;;;8.50;99.90;;;;;;5067743;28;20033;-73
2024/02/28 10:11:18;;;;;;;11.63;6.43;;;8.50;99.90;;;;;;5046325;28;20041;-73
2024/02/28 10:13:43;;;;;;;14.93;5.53;;;8.60;99.90;;;;;;5063267;28;20045;-73
2024/02/28 10:16:09;;;;;;;14.18;6.38;;;8.60;99.90;;;;;;5046734;28;20055;-74
2024/02/28 10:18:34;;;;;;;14.77;6.68;;;8.70;99.90;;;;;;5051709;28;20162;-74
2024/02/28 10:21:00;;;;;;;19.35;7.72;;;8.80;99.90;;;;;;5065369;28;20035;-74
2024/02/28 10:23:27;;;;;;;11.77;6.07;;;8.80;99.90;;;;;;5043682;28;20043;-75
2024/02/28 10:25:52;;;;;;;12.07;6.45;;;8.90;99.90;;;;;;5059695;28;20490;-77
2024/02/28 10:28:18;;;;;;;18.35;6.28;;;9.00;99.90;;;;;;5065728;28;20044;-74
2024/02/28 10:30:44;;;;;;;13.20;5.50;;;9.10;99.90;;;;;;5050291;28;20036;-74
2024/02/28 10:33:14;;;;;;;14.77;6.30;;;9.20;99.90;;;;;;5065283;28;20391;-75
2024/02/28 10:35:42;;;;;;;19.83;7.10;;;9.30;99.90;;;;;;5060166;28;20517;-74
2024/02/28 10:38:11;;;;;;;14.35;6.38;;;9.40;99.90;;;;;;5056539;28;20039;-75
2024/02/28 10:40:40;;;;;;;13.40;6.20;;;9.40;99.90;;;;;;5052887;28;20029;-74
2024/02/28 10:43:09;;;;;;;14.30;6.72;;;9.50;99.90;;;;;;5029006;28;20048;-75
2024/02/28 10:45:36;;;;;;;13.65;6.40;;;9.50;99.90;;;;;;5045560;28;20076;-74
2024/02/28 10:48:03;;;;;;;16.17;7.53;;;9.60;99.90;;;;;;5066095;28;20099;-74
2024/02/28 10:50:29;;;;;;;17.98;6.93;;;9.60;99.90;;;;;;5043755;28;20044;-74
2024/02/28 10:53:02;;;;;;;15.65;6.53;;;9.60;99.90;;;;;;5047632;28;20029;-73
2024/02/28 10:55:34;;;;;;;19.45;6.18;;;9.60;99.90;;;;;;5061704;28;20083;-73
2024/02/28 10:58:07;;;;;;;14.27;6.00;;;9.60;99.90;;;;;;5061289;28;20025;-73
2024/02/28 11:00:35;;;;;;;15.18;6.35;;;9.40;99.90;;;;;;5063629;28;20039;-75
2024/02/28 11:03:03;;;;;;;15.23;6.57;;;9.40;99.90;;;;;;5068629;28;20150;-74
2024/02/28 11:05:39;;;;;;;14.93;6.63;;;9.40;99.90;;;;;;5052015;28;20040;-74
2024/02/28 11:08:27;;;;;;;15.85;6.35;;;9.40;99.90;;;;;;5043987;28;20037;-73
2024/02/28 11:11:03;;;;;;;15.43;6.25;;;9.40;99.90;;;;;;5044243;28;20116;-74
2024/02/28 11:13:33;;;;;;;15.88;6.95;;;9.40;99.90;;;;;;5043237;28;20102;-74
2024/02/28 11:16:09;;;;;;;13.75;6.53;;;9.40;99.90;;;;;;5046200;28;20061;-73
2024/02/28 11:18:34;;;;;;;14.52;6.05;;;9.50;99.90;;;;;;5049205;28;20149;-73
2024/02/28 11:21:00;;;;;;;13.80;6.95;;;9.60;99.90;;;;;;5056309;28;20721;-74
2024/02/28 11:23:26;;;;;;;9.85;5.90;;;9.70;99.90;;;;;;5045487;28;20110;-74
2024/02/28 11:25:51;;;;;;;14.15;5.50;;;9.80;99.90;;;;;;5048955;28;20028;-75
2024/02/28 11:28:22;;;;;;;10.95;5.60;;;9.80;99.90;;;;;;5059442;28;20068;-75
2024/02/28 11:30:47;;;;;;;12.45;5.35;;;9.80;99.90;;;;;;5059628;28;20072;-74
2024/02/28 11:33:13;;;;;;;14.75;6.15;;;9.80;99.90;;;;;;5060061;28;20144;-74
2024/02/28 11:35:38;;;;;;;16.50;7.05;;;9.80;99.90;;;;;;5059822;28;20519;-74
2024/02/28 11:38:06;;;;;;;17.77;7.15;;;9.80;99.90;;;;;;5060015;28;20426;-73
2024/02/28 11:40:32;;;;;;;16.13;6.72;;;9.80;99.90;;;;;;5039193;28;20036;-75
2024/02/28 11:42:59;;;;;;;12.88;6.35;;;9.90;99.90;;;;;;5050069;28;20035;-75
2024/02/28 11:45:25;;;;;;;11.52;6.53;;;9.90;99.90;;;;;;5060130;28;20056;-73
2024/02/28 11:47:51;;;;;;;14.68;6.28;;;9.90;99.90;;;;;;5069721;28;20044;-75
2024/02/28 11:50:18;;;;;;;14.80;6.97;;;10.00;99.90;;;;;;5068405;28;20040;-73
2024/02/28 11:52:43;;;;;;;16.10;6.28;;;10.00;99.90;;;;;;5043450;28;20025;-75
2024/02/28 11:55:09;;;;;;;13.98;5.88;;;10.00;99.90;;;;;;5039225;28;20125;-75
2024/02/28 11:57:35;;;;;;;15.80;6.32;;;10.10;99.90;;;;;;5059534;28;20040;-75
2024/02/28 12:00:09;;;;;;;14.70;7.53;;;10.10;99.90;;;;;;5058370;28;20558;-74
2024/02/28 12:02:35;;;;;;;17.23;6.80;;;10.20;99.90;;;;;;5061582;28;20038;-74
2024/02/28 12:05:04;;;;;;;16.77;7.43;;;10.20;99.90;;;;;;5057203;28;20037;-74
2024/02/28 12:07:30;;;;;;;14.20;7.10;;;10.20;99.90;;;;;;5045701;28;20028;-75
2024/02/28 12:09:56;;;;;;;17.33;6.35;;;10.20;99.90;;;;;;5060127;28;20025;-74
2024/02/28 12:12:22;;;;;;;16.20;6.20;;;10.20;99.90;;;;;;5046656;28;20082;-74
2024/02/28 12:14:47;;;;;;;13.50;6.03;;;10.20;99.90;;;;;;5059874;28;20044;-74
2024/02/28 12:17:14;;;;;;;17.90;6.45;;;10.20;99.90;;;;;;5046169;28;20028;-73
2024/02/28 12:19:40;;;;;;;12.70;5.93;;;10.20;99.90;;;;;;5058695;28;20028;-73
2024/02/28 12:22:06;;;;;;;13.40;5.82;;;10.20;99.90;;;;;;5045601;28;20040;-75
2024/02/28 12:24:32;;;;;;;11.90;6.13;;;10.20;99.90;;;;;;5059238;28;20037;-74
2024/02/28 12:26:58;;;;;;;11.13;5.40;;;10.20;99.90;;;;;;5055291;28;20029;-74
2024/02/28 12:29:23;;;;;;;18.33;5.72;;;10.10;99.90;;;;;;5060876;28;20036;-75
2024/02/28 12:31:49;;;;;;;11.07;5.30;;;10.10;99.90;;;;;;5061613;28;20076;-74
2024/02/28 12:34:15;;;;;;;11.13;4.85;;;10.10;99.90;;;;;;5069711;28;20043;-76
2024/02/28 12:36:41;;;;;;;13.20;5.93;;;10.10;99.90;;;;;;5063600;28;20095;-75
2024/02/28 12:39:11;;;;;;;9.63;5.43;;;10.30;99.90;;;;;;5046105;28;20068;-74
2024/02/28 12:41:39;;;;;;;12.15;5.05;;;10.40;99.90;;;;;;5043848;28;20025;-74
2024/02/28 12:44:06;;;;;;;11.88;5.20;;;10.40;99.90;;;;;;5059122;28;20221;-75